sensor_id;sensor_type;location;lat;lon;timestamp;P1;durP1;ratioP1;P2;durP2;ratioP2
60038;SDS011;45916;52.734;6.544;2023-05-14T00:01:57;24.17;;;20.52;;
60038;SDS011;45916;52.734;6.544;2023-05-14T00:04:23;23.80;;;21.15;;
60038;SDS011;45916;52.734;6.544;2023-05-14T00:06:48;26.27;;;20.60;;
60038;SDS011;45916;52.734;6.544;2023-05-14T00:09:14;28.73;;;19.85;;
60038;SDS011;45916;52.734;6.544;2023-05-14T00:11:40;23.38;;;18.73;;
60038;SDS011;45916;52.734;6.544;2023-05-14T00:14:06;21.35;;;18.70;;
60038;SDS011;45916;52.734;6.544;2023-05-14T00:16:32;23.15;;;19.42;;
60038;SDS011;45916;52.734;6.544;2023-05-14T00:18:57;25.65;;;19.85;;
60038;SDS011;45916;52.734;6.544;2023-05-14T00:21:23;20.98;;;18.75;;
60038;SDS011;45916;52.734;6.544;2023-05-14T00:23:48;20.63;;;18.27;;
60038;SDS011;45916;52.734;6.544;2023-05-14T00:26:14;23.65;;;19.13;;
60038;SDS011;45916;52.734;6.544;2023-05-14T00:28:40;24.77;;;18.15;;
60038;SDS011;45916;52.734;6.544;2023-05-14T00:31:06;24.45;;;18.85;;
60038;SDS011;45916;52.734;6.544;2023-05-14T00:33:31;23.10;;;18.98;;
60038;SDS011;45916;52.734;6.544;2023-05-14T00:35:57;22.35;;;18.73;;
60038;SDS011;45916;52.734;6.544;2023-05-14T00:38:23;23.35;;;19.55;;
60038;SDS011;45916;52.734;6.544;2023-05-14T00:43:18;22.80;;;19.15;;
60038;SDS011;45916;52.734;6.544;2023-05-14T00:45:44;26.45;;;20.90;;
60038;SDS011;45916;52.734;6.544;2023-05-14T00:48:10;25.73;;;19.83;;
60038;SDS011;45916;52.734;6.544;2023-05-14T00:50:36;21.80;;;19.08;;
60038;SDS011;45916;52.734;6.544;2023-05-14T00:53:02;23.70;;;19.90;;
60038;SDS011;45916;52.734;6.544;2023-05-14T00:55:34;24.05;;;20.77;;
60038;SDS011;45916;52.734;6.544;2023-05-14T00:58:06;24.15;;;18.75;;
60038;SDS011;45916;52.734;6.544;2023-05-14T01:00:35;23.35;;;19.10;;
60038;SDS011;45916;52.734;6.544;2023-05-14T01:03:02;26.15;;;19.80;;
60038;SDS011;45916;52.734;6.544;2023-05-14T01:05:29;21.65;;;19.10;;
60038;SDS011;45916;52.734;6.544;2023-05-14T01:08:12;25.17;;;19.27;;
60038;SDS011;45916;52.734;6.544;2023-05-14T01:10:46;21.67;;;18.05;;
60038;SDS011;45916;52.734;6.544;2023-05-14T01:16:03;23.63;;;18.73;;
60038;SDS011;45916;52.734;6.544;2023-05-14T01:18:29;24.75;;;19.08;;
60038;SDS011;45916;52.734;6.544;2023-05-14T01:20:56;21.20;;;18.90;;
60038;SDS011;45916;52.734;6.544;2023-05-14T01:23:22;24.80;;;19.02;;
60038;SDS011;45916;52.734;6.544;2023-05-14T01:25:48;21.38;;;17.58;;
60038;SDS011;45916;52.734;6.544;2023-05-14T01:28:18;22.75;;;18.08;;
60038;SDS011;45916;52.734;6.544;2023-05-14T01:30:52;25.70;;;19.48;;
60038;SDS011;45916;52.734;6.544;2023-05-14T01:33:24;24.88;;;19.52;;
60038;SDS011;45916;52.734;6.544;2023-05-14T01:35:53;24.55;;;19.25;;
60038;SDS011;45916;52.734;6.544;2023-05-14T01:38:19;24.60;;;20.95;;
60038;SDS011;45916;52.734;6.544;2023-05-14T01:40:47;23.23;;;17.75;;
60038;SDS011;45916;52.734;6.544;2023-05-14T01:43:14;25.23;;;19.73;;
60038;SDS011;45916;52.734;6.544;2023-05-14T01:45:40;26.23;;;18.83;;
60038;SDS011;45916;52.734;6.544;2023-05-14T01:48:07;21.38;;;18.23;;
60038;SDS011;45916;52.734;6.544;2023-05-14T01:50:33;26.60;;;20.80;;
60038;SDS011;45916;52.734;6.544;2023-05-14T01:52:59;27.35;;;21.58;;
60038;SDS011;45916;52.734;6.544;2023-05-14T01:55:24;23.92;;;19.60;;
60038;SDS011;45916;52.734;6.544;2023-05-14T01:57:50;28.20;;;21.08;;
60038;SDS011;45916;52.734;6.544;2023-05-14T02:00:17;22.92;;;19.35;;
60038;SDS011;45916;52.734;6.544;2023-05-14T02:02:43;24.40;;;19.15;;
60038;SDS011;45916;52.734;6.544;2023-05-14T02:05:10;25.20;;;20.85;;
60038;SDS011;45916;52.734;6.544;2023-05-14T02:07:36;23.50;;;20.40;;
60038;SDS011;45916;52.734;6.544;2023-05-14T02:10:02;27.23;;;22.20;;
60038;SDS011;45916;52.734;6.544;2023-05-14T02:12:29;26.10;;;20.98;;
60038;SDS011;45916;52.734;6.544;2023-05-14T02:14:54;22.35;;;19.98;;
60038;SDS011;45916;52.734;6.544;2023-05-14T02:17:20;26.58;;;20.98;;
60038;SDS011;45916;52.734;6.544;2023-05-14T02:19:46;30.70;;;23.10;;
60038;SDS011;45916;52.734;6.544;2023-05-14T02:22:12;27.38;;;21.77;;
60038;SDS011;45916;52.734;6.544;2023-05-14T02:24:37;25.67;;;20.50;;
60038;SDS011;45916;52.734;6.544;2023-05-14T02:27:03;25.85;;;20.38;;
60038;SDS011;45916;52.734;6.544;2023-05-14T02:29:30;29.70;;;21.98;;
60038;SDS011;45916;52.734;6.544;2023-05-14T02:31:56;28.23;;;21.83;;
60038;SDS011;45916;52.734;6.544;2023-05-14T02:34:21;28.45;;;21.38;;
60038;SDS011;45916;52.734;6.544;2023-05-14T02:36:47;23.73;;;21.20;;
60038;SDS011;45916;52.734;6.544;2023-05-14T02:39:13;27.33;;;22.63;;
60038;SDS011;45916;52.734;6.544;2023-05-14T02:41:39;23.70;;;20.55;;
60038;SDS011;45916;52.734;6.544;2023-05-14T02:44:04;28.27;;;22.77;;
60038;SDS011;45916;52.734;6.544;2023-05-14T02:46:30;27.35;;;21.77;;
60038;SDS011;45916;52.734;6.544;2023-05-14T02:48:56;28.52;;;21.67;;
60038;SDS011;45916;52.734;6.544;2023-05-14T02:51:22;29.63;;;21.40;;
60038;SDS011;45916;52.734;6.544;2023-05-14T02:53:48;28.02;;;23.23;;
60038;SDS011;45916;52.734;6.544;2023-05-14T02:56:14;28.55;;;23.48;;
60038;SDS011;45916;52.734;6.544;2023-05-14T02:58:40;27.13;;;21.95;;
60038;SDS011;45916;52.734;6.544;2023-05-14T03:01:06;26.17;;;20.10;;
60038;SDS011;45916;52.734;6.544;2023-05-14T03:03:33;28.08;;;23.30;;
60038;SDS011;45916;52.734;6.544;2023-05-14T03:06:00;27.52;;;22.35;;
60038;SDS011;45916;52.734;6.544;2023-05-14T03:08:25;27.55;;;21.08;;
60038;SDS011;45916;52.734;6.544;2023-05-14T03:10:51;31.65;;;24.25;;
60038;SDS011;45916;52.734;6.544;2023-05-14T03:13:17;31.10;;;23.58;;
60038;SDS011;45916;52.734;6.544;2023-05-14T03:15:44;35.15;;;26.58;;
60038;SDS011;45916;52.734;6.544;2023-05-14T03:18:11;31.20;;;25.48;;
60038;SDS011;45916;52.734;6.544;2023-05-14T03:20:37;34.65;;;26.52;;
60038;SDS011;45916;52.734;6.544;2023-05-14T03:23:03;29.00;;;25.02;;
60038;SDS011;45916;52.734;6.544;2023-05-14T03:25:29;33.03;;;25.90;;
60038;SDS011;45916;52.734;6.544;2023-05-14T03:27:54;37.30;;;27.80;;
60038;SDS011;45916;52.734;6.544;2023-05-14T03:30:20;33.67;;;25.42;;
60038;SDS011;45916;52.734;6.544;2023-05-14T03:32:46;35.17;;;27.10;;
60038;SDS011;45916;52.734;6.544;2023-05-14T03:35:12;35.20;;;26.58;;
60038;SDS011;45916;52.734;6.544;2023-05-14T03:37:37;27.88;;;22.58;;
60038;SDS011;45916;52.734;6.544;2023-05-14T03:40:03;28.85;;;23.23;;
60038;SDS011;45916;52.734;6.544;2023-05-14T03:42:29;31.83;;;25.00;;
60038;SDS011;45916;52.734;6.544;2023-05-14T03:44:55;34.05;;;26.67;;
60038;SDS011;45916;52.734;6.544;2023-05-14T03:47:20;29.27;;;23.25;;
60038;SDS011;45916;52.734;6.544;2023-05-14T03:49:46;29.33;;;24.13;;
60038;SDS011;45916;52.734;6.544;2023-05-14T03:52:12;30.65;;;22.88;;
60038;SDS011;45916;52.734;6.544;2023-05-14T03:54:37;34.78;;;26.90;;
60038;SDS011;45916;52.734;6.544;2023-05-14T03:57:05;30.33;;;24.58;;
60038;SDS011;45916;52.734;6.544;2023-05-14T03:59:31;30.30;;;25.30;;
60038;SDS011;45916;52.734;6.544;2023-05-14T04:01:56;32.80;;;26.23;;
60038;SDS011;45916;52.734;6.544;2023-05-14T04:04:22;34.25;;;25.25;;
60038;SDS011;45916;52.734;6.544;2023-05-14T04:06:48;27.02;;;21.77;;
60038;SDS011;45916;52.734;6.544;2023-05-14T04:09:13;28.48;;;23.30;;
60038;SDS011;45916;52.734;6.544;2023-05-14T04:11:39;28.02;;;22.88;;
60038;SDS011;45916;52.734;6.544;2023-05-14T04:14:05;31.52;;;24.75;;
60038;SDS011;45916;52.734;6.544;2023-05-14T04:16:31;27.13;;;21.85;;
60038;SDS011;45916;52.734;6.544;2023-05-14T04:18:56;28.13;;;22.92;;
60038;SDS011;45916;52.734;6.544;2023-05-14T04:21:22;28.48;;;23.17;;
60038;SDS011;45916;52.734;6.544;2023-05-14T04:23:48;27.55;;;21.58;;
60038;SDS011;45916;52.734;6.544;2023-05-14T04:26:14;29.40;;;22.55;;
60038;SDS011;45916;52.734;6.544;2023-05-14T04:28:40;28.67;;;24.08;;
60038;SDS011;45916;52.734;6.544;2023-05-14T04:31:06;29.58;;;24.65;;
60038;SDS011;45916;52.734;6.544;2023-05-14T04:33:31;28.08;;;23.80;;
60038;SDS011;45916;52.734;6.544;2023-05-14T04:35:57;30.33;;;24.33;;
60038;SDS011;45916;52.734;6.544;2023-05-14T04:38:23;28.80;;;22.55;;
60038;SDS011;45916;52.734;6.544;2023-05-14T04:40:48;30.40;;;23.92;;
60038;SDS011;45916;52.734;6.544;2023-05-14T04:43:14;32.20;;;24.63;;
60038;SDS011;45916;52.734;6.544;2023-05-14T04:45:41;29.05;;;22.08;;
60038;SDS011;45916;52.734;6.544;2023-05-14T04:48:07;31.85;;;24.10;;
60038;SDS011;45916;52.734;6.544;2023-05-14T04:50:33;29.00;;;22.52;;
60038;SDS011;45916;52.734;6.544;2023-05-14T04:52:59;29.77;;;23.98;;
60038;SDS011;45916;52.734;6.544;2023-05-14T04:55:25;27.55;;;23.33;;
60038;SDS011;45916;52.734;6.544;2023-05-14T04:57:53;25.60;;;21.95;;
60038;SDS011;45916;52.734;6.544;2023-05-14T05:00:19;29.17;;;22.08;;
60038;SDS011;45916;52.734;6.544;2023-05-14T05:02:46;28.13;;;21.42;;
60038;SDS011;45916;52.734;6.544;2023-05-14T05:05:11;26.15;;;21.15;;
60038;SDS011;45916;52.734;6.544;2023-05-14T05:07:37;23.70;;;19.77;;
60038;SDS011;45916;52.734;6.544;2023-05-14T05:10:03;28.40;;;21.65;;
60038;SDS011;45916;52.734;6.544;2023-05-14T05:12:29;24.50;;;20.95;;
60038;SDS011;45916;52.734;6.544;2023-05-14T05:14:55;22.63;;;18.88;;
60038;SDS011;45916;52.734;6.544;2023-05-14T05:17:22;24.60;;;19.23;;
60038;SDS011;45916;52.734;6.544;2023-05-14T05:19:48;21.00;;;18.02;;
60038;SDS011;45916;52.734;6.544;2023-05-14T05:22:14;22.05;;;19.35;;
60038;SDS011;45916;52.734;6.544;2023-05-14T05:24:39;21.60;;;16.77;;
60038;SDS011;45916;52.734;6.544;2023-05-14T05:27:05;20.60;;;17.13;;
60038;SDS011;45916;52.734;6.544;2023-05-14T05:29:31;17.30;;;15.20;;
60038;SDS011;45916;52.734;6.544;2023-05-14T05:31:57;18.48;;;15.02;;
60038;SDS011;45916;52.734;6.544;2023-05-14T05:34:23;20.58;;;14.95;;
60038;SDS011;45916;52.734;6.544;2023-05-14T05:36:48;16.15;;;13.93;;
60038;SDS011;45916;52.734;6.544;2023-05-14T05:39:14;15.60;;;13.93;;
60038;SDS011;45916;52.734;6.544;2023-05-14T05:41:40;14.95;;;13.18;;
60038;SDS011;45916;52.734;6.544;2023-05-14T05:44:07;15.05;;;13.05;;
60038;SDS011;45916;52.734;6.544;2023-05-14T05:46:33;14.48;;;12.95;;
60038;SDS011;45916;52.734;6.544;2023-05-14T05:48:59;13.80;;;12.35;;
60038;SDS011;45916;52.734;6.544;2023-05-14T05:51:24;13.48;;;11.95;;
60038;SDS011;45916;52.734;6.544;2023-05-14T05:53:50;16.17;;;11.65;;
60038;SDS011;45916;52.734;6.544;2023-05-14T05:56:16;14.85;;;11.32;;
60038;SDS011;45916;52.734;6.544;2023-05-14T05:58:42;13.85;;;11.85;;
60038;SDS011;45916;52.734;6.544;2023-05-14T06:01:07;13.30;;;11.88;;
60038;SDS011;45916;52.734;6.544;2023-05-14T06:03:33;13.25;;;11.55;;
60038;SDS011;45916;52.734;6.544;2023-05-14T06:05:59;12.85;;;11.45;;
60038;SDS011;45916;52.734;6.544;2023-05-14T06:08:25;12.32;;;11.02;;
60038;SDS011;45916;52.734;6.544;2023-05-14T06:10:50;12.60;;;10.38;;
60038;SDS011;45916;52.734;6.544;2023-05-14T06:13:16;10.70;;;9.70;;
60038;SDS011;45916;52.734;6.544;2023-05-14T06:15:42;12.75;;;10.30;;
60038;SDS011;45916;52.734;6.544;2023-05-14T06:18:08;11.90;;;10.52;;
60038;SDS011;45916;52.734;6.544;2023-05-14T06:20:33;12.75;;;10.18;;
60038;SDS011;45916;52.734;6.544;2023-05-14T06:22:59;13.77;;;10.27;;
60038;SDS011;45916;52.734;6.544;2023-05-14T06:25:25;12.70;;;10.48;;
60038;SDS011;45916;52.734;6.544;2023-05-14T06:27:51;13.05;;;9.60;;
60038;SDS011;45916;52.734;6.544;2023-05-14T06:30:16;12.88;;;9.15;;
60038;SDS011;45916;52.734;6.544;2023-05-14T06:32:42;11.75;;;9.65;;
60038;SDS011;45916;52.734;6.544;2023-05-14T06:35:08;11.10;;;9.25;;
60038;SDS011;45916;52.734;6.544;2023-05-14T06:37:34;11.80;;;9.50;;
60038;SDS011;45916;52.734;6.544;2023-05-14T06:39:59;13.15;;;9.93;;
60038;SDS011;45916;52.734;6.544;2023-05-14T06:42:25;13.00;;;10.45;;
60038;SDS011;45916;52.734;6.544;2023-05-14T06:44:51;10.82;;;9.25;;
60038;SDS011;45916;52.734;6.544;2023-05-14T06:47:17;12.27;;;10.15;;
60038;SDS011;45916;52.734;6.544;2023-05-14T06:49:43;11.93;;;9.52;;
60038;SDS011;45916;52.734;6.544;2023-05-14T06:52:08;14.32;;;10.10;;
60038;SDS011;45916;52.734;6.544;2023-05-14T06:54:34;11.02;;;9.75;;
60038;SDS011;45916;52.734;6.544;2023-05-14T06:57:00;12.07;;;9.65;;
60038;SDS011;45916;52.734;6.544;2023-05-14T06:59:25;11.82;;;9.85;;
60038;SDS011;45916;52.734;6.544;2023-05-14T07:01:51;15.45;;;9.90;;
60038;SDS011;45916;52.734;6.544;2023-05-14T07:04:17;9.52;;;8.52;;
60038;SDS011;45916;52.734;6.544;2023-05-14T07:06:42;13.65;;;9.10;;
60038;SDS011;45916;52.734;6.544;2023-05-14T07:09:08;13.43;;;9.23;;
60038;SDS011;45916;52.734;6.544;2023-05-14T07:11:34;13.13;;;9.40;;
60038;SDS011;45916;52.734;6.544;2023-05-14T07:14:00;11.60;;;9.80;;
60038;SDS011;45916;52.734;6.544;2023-05-14T07:16:26;10.90;;;9.05;;
60038;SDS011;45916;52.734;6.544;2023-05-14T07:18:52;10.48;;;9.38;;
60038;SDS011;45916;52.734;6.544;2023-05-14T07:21:17;10.32;;;9.30;;
60038;SDS011;45916;52.734;6.544;2023-05-14T07:23:43;11.95;;;9.60;;
60038;SDS011;45916;52.734;6.544;2023-05-14T07:26:09;12.43;;;9.60;;
60038;SDS011;45916;52.734;6.544;2023-05-14T07:28:34;10.85;;;9.57;;
60038;SDS011;45916;52.734;6.544;2023-05-14T07:31:00;11.88;;;10.68;;
60038;SDS011;45916;52.734;6.544;2023-05-14T07:33:28;13.25;;;9.50;;
60038;SDS011;45916;52.734;6.544;2023-05-14T07:35:54;11.45;;;9.80;;
60038;SDS011;45916;52.734;6.544;2023-05-14T07:38:20;12.88;;;8.93;;
60038;SDS011;45916;52.734;6.544;2023-05-14T07:40:46;11.18;;;10.07;;
60038;SDS011;45916;52.734;6.544;2023-05-14T07:43:11;10.60;;;9.52;;
60038;SDS011;45916;52.734;6.544;2023-05-14T07:45:38;11.97;;;10.27;;
60038;SDS011;45916;52.734;6.544;2023-05-14T07:48:04;10.38;;;9.30;;
60038;SDS011;45916;52.734;6.544;2023-05-14T07:50:30;12.82;;;9.75;;
60038;SDS011;45916;52.734;6.544;2023-05-14T07:52:55;14.32;;;11.98;;
60038;SDS011;45916;52.734;6.544;2023-05-14T07:55:21;12.25;;;10.25;;
60038;SDS011;45916;52.734;6.544;2023-05-14T07:57:47;11.05;;;9.77;;
60038;SDS011;45916;52.734;6.544;2023-05-14T08:00:13;13.32;;;9.98;;
60038;SDS011;45916;52.734;6.544;2023-05-14T08:02:38;11.88;;;10.32;;
60038;SDS011;45916;52.734;6.544;2023-05-14T08:05:04;11.60;;;8.98;;
60038;SDS011;45916;52.734;6.544;2023-05-14T08:07:31;12.85;;;9.32;;
60038;SDS011;45916;52.734;6.544;2023-05-14T08:09:57;10.07;;;9.07;;
60038;SDS011;45916;52.734;6.544;2023-05-14T08:12:23;13.32;;;9.50;;
60038;SDS011;45916;52.734;6.544;2023-05-14T08:14:49;11.50;;;9.20;;
60038;SDS011;45916;52.734;6.544;2023-05-14T08:17:15;12.93;;;9.90;;
60038;SDS011;45916;52.734;6.544;2023-05-14T08:19:42;10.55;;;9.07;;
60038;SDS011;45916;52.734;6.544;2023-05-14T08:22:08;11.15;;;9.57;;
60038;SDS011;45916;52.734;6.544;2023-05-14T08:24:33;10.20;;;8.60;;
60038;SDS011;45916;52.734;6.544;2023-05-14T08:26:59;12.27;;;9.25;;
60038;SDS011;45916;52.734;6.544;2023-05-14T08:29:25;11.60;;;8.93;;
60038;SDS011;45916;52.734;6.544;2023-05-14T08:31:50;10.07;;;9.07;;
60038;SDS011;45916;52.734;6.544;2023-05-14T08:34:16;11.73;;;8.60;;
60038;SDS011;45916;52.734;6.544;2023-05-14T08:36:42;10.13;;;8.50;;
60038;SDS011;45916;52.734;6.544;2023-05-14T08:39:07;10.05;;;8.43;;
60038;SDS011;45916;52.734;6.544;2023-05-14T08:41:33;10.57;;;8.98;;
60038;SDS011;45916;52.734;6.544;2023-05-14T08:44:07;11.25;;;8.60;;
60038;SDS011;45916;52.734;6.544;2023-05-14T08:46:37;10.65;;;8.05;;
60038;SDS011;45916;52.734;6.544;2023-05-14T08:49:07;11.95;;;8.32;;
60038;SDS011;45916;52.734;6.544;2023-05-14T08:51:42;9.93;;;7.88;;
60038;SDS011;45916;52.734;6.544;2023-05-14T08:54:11;10.02;;;7.50;;
60038;SDS011;45916;52.734;6.544;2023-05-14T08:56:41;9.10;;;7.53;;
60038;SDS011;45916;52.734;6.544;2023-05-14T08:59:09;10.43;;;8.23;;
60038;SDS011;45916;52.734;6.544;2023-05-14T09:01:36;9.23;;;7.50;;
60038;SDS011;45916;52.734;6.544;2023-05-14T09:04:02;11.35;;;8.00;;
60038;SDS011;45916;52.734;6.544;2023-05-14T09:06:32;11.68;;;8.23;;
60038;SDS011;45916;52.734;6.544;2023-05-14T09:09:02;9.90;;;8.18;;
60038;SDS011;45916;52.734;6.544;2023-05-14T09:11:28;10.55;;;7.63;;
60038;SDS011;45916;52.734;6.544;2023-05-14T09:13:54;10.82;;;8.20;;
60038;SDS011;45916;52.734;6.544;2023-05-14T09:16:20;10.05;;;7.90;;
60038;SDS011;45916;52.734;6.544;2023-05-14T09:18:46;10.52;;;8.30;;
60038;SDS011;45916;52.734;6.544;2023-05-14T09:21:15;10.80;;;8.40;;
60038;SDS011;45916;52.734;6.544;2023-05-14T09:23:42;12.13;;;8.05;;
60038;SDS011;45916;52.734;6.544;2023-05-14T09:26:09;11.15;;;8.48;;
60038;SDS011;45916;52.734;6.544;2023-05-14T09:28:39;10.00;;;8.20;;
60038;SDS011;45916;52.734;6.544;2023-05-14T09:31:08;9.60;;;7.38;;
60038;SDS011;45916;52.734;6.544;2023-05-14T09:33:34;9.25;;;7.90;;
60038;SDS011;45916;52.734;6.544;2023-05-14T09:36:01;9.98;;;8.13;;
60038;SDS011;45916;52.734;6.544;2023-05-14T09:38:30;11.52;;;7.78;;
60038;SDS011;45916;52.734;6.544;2023-05-14T09:40:57;10.57;;;8.05;;
60038;SDS011;45916;52.734;6.544;2023-05-14T09:43:24;9.90;;;7.63;;
60038;SDS011;45916;52.734;6.544;2023-05-14T09:45:50;10.23;;;8.52;;
60038;SDS011;45916;52.734;6.544;2023-05-14T09:48:16;10.90;;;9.32;;
60038;SDS011;45916;52.734;6.544;2023-05-14T09:50:42;11.43;;;8.98;;
60038;SDS011;45916;52.734;6.544;2023-05-14T09:53:09;16.17;;;9.32;;
60038;SDS011;45916;52.734;6.544;2023-05-14T09:55:35;10.30;;;8.23;;
60038;SDS011;45916;52.734;6.544;2023-05-14T09:58:01;12.10;;;9.20;;
60038;SDS011;45916;52.734;6.544;2023-05-14T10:00:28;11.07;;;9.52;;
60038;SDS011;45916;52.734;6.544;2023-05-14T10:02:55;10.40;;;7.90;;
60038;SDS011;45916;52.734;6.544;2023-05-14T10:05:22;8.80;;;7.90;;
60038;SDS011;45916;52.734;6.544;2023-05-14T10:07:49;13.93;;;9.87;;
60038;SDS011;45916;52.734;6.544;2023-05-14T10:10:20;11.60;;;9.70;;
60038;SDS011;45916;52.734;6.544;2023-05-14T10:12:51;12.02;;;9.48;;
60038;SDS011;45916;52.734;6.544;2023-05-14T10:15:55;10.50;;;9.30;;
60038;SDS011;45916;52.734;6.544;2023-05-14T10:18:19;14.13;;;9.75;;
60038;SDS011;45916;52.734;6.544;2023-05-14T10:20:59;15.27;;;10.57;;
60038;SDS011;45916;52.734;6.544;2023-05-14T10:23:28;10.88;;;9.70;;
60038;SDS011;45916;52.734;6.544;2023-05-14T10:25:54;11.73;;;9.23;;
60038;SDS011;45916;52.734;6.544;2023-05-14T10:30:47;9.95;;;8.95;;
60038;SDS011;45916;52.734;6.544;2023-05-14T10:33:14;10.57;;;9.35;;
60038;SDS011;45916;52.734;6.544;2023-05-14T10:38:34;12.07;;;8.88;;
60038;SDS011;45916;52.734;6.544;2023-05-14T10:41:02;10.48;;;8.55;;
60038;SDS011;45916;52.734;6.544;2023-05-14T10:43:29;12.05;;;8.48;;
60038;SDS011;45916;52.734;6.544;2023-05-14T10:45:57;9.55;;;8.00;;
60038;SDS011;45916;52.734;6.544;2023-05-14T10:48:24;10.70;;;9.05;;
60038;SDS011;45916;52.734;6.544;2023-05-14T10:50:50;8.77;;;7.68;;
60038;SDS011;45916;52.734;6.544;2023-05-14T10:53:16;9.97;;;7.30;;
60038;SDS011;45916;52.734;6.544;2023-05-14T10:55:43;9.20;;;7.60;;
60038;SDS011;45916;52.734;6.544;2023-05-14T10:58:10;8.75;;;6.40;;
60038;SDS011;45916;52.734;6.544;2023-05-14T11:00:36;9.63;;;6.10;;
60038;SDS011;45916;52.734;6.544;2023-05-14T11:03:03;11.88;;;7.03;;
60038;SDS011;45916;52.734;6.544;2023-05-14T11:05:30;10.07;;;6.35;;
60038;SDS011;45916;52.734;6.544;2023-05-14T11:07:57;9.15;;;6.72;;
60038;SDS011;45916;52.734;6.544;2023-05-14T11:10:25;7.40;;;6.38;;
60038;SDS011;45916;52.734;6.544;2023-05-14T11:12:54;10.50;;;7.85;;
60038;SDS011;45916;52.734;6.544;2023-05-14T11:15:21;9.35;;;7.85;;
60038;SDS011;45916;52.734;6.544;2023-05-14T11:17:49;8.00;;;6.93;;
60038;SDS011;45916;52.734;6.544;2023-05-14T11:20:15;9.70;;;7.05;;
60038;SDS011;45916;52.734;6.544;2023-05-14T11:22:42;10.65;;;6.50;;
60038;SDS011;45916;52.734;6.544;2023-05-14T11:25:09;9.40;;;6.22;;
60038;SDS011;45916;52.734;6.544;2023-05-14T11:27:39;9.80;;;6.97;;
60038;SDS011;45916;52.734;6.544;2023-05-14T11:30:13;8.85;;;6.10;;
60038;SDS011;45916;52.734;6.544;2023-05-14T11:32:44;11.25;;;7.28;;
60038;SDS011;45916;52.734;6.544;2023-05-14T11:35:11;10.68;;;6.80;;
60038;SDS011;45916;52.734;6.544;2023-05-14T11:37:37;10.30;;;7.33;;
60038;SDS011;45916;52.734;6.544;2023-05-14T11:40:06;7.25;;;4.97;;
60038;SDS011;45916;52.734;6.544;2023-05-14T11:42:40;11.05;;;6.20;;
60038;SDS011;45916;52.734;6.544;2023-05-14T11:45:06;9.48;;;6.72;;
60038;SDS011;45916;52.734;6.544;2023-05-14T11:47:36;7.40;;;5.88;;
60038;SDS011;45916;52.734;6.544;2023-05-14T11:50:01;8.30;;;5.55;;
60038;SDS011;45916;52.734;6.544;2023-05-14T11:52:27;10.35;;;6.15;;
60038;SDS011;45916;52.734;6.544;2023-05-14T11:54:53;7.57;;;5.80;;
60038;SDS011;45916;52.734;6.544;2023-05-14T11:57:19;10.45;;;7.50;;
60038;SDS011;45916;52.734;6.544;2023-05-14T11:59:46;9.02;;;6.95;;
60038;SDS011;45916;52.734;6.544;2023-05-14T12:02:13;8.80;;;6.35;;
60038;SDS011;45916;52.734;6.544;2023-05-14T12:04:41;12.60;;;6.60;;
60038;SDS011;45916;52.734;6.544;2023-05-14T12:07:09;7.97;;;6.47;;
60038;SDS011;45916;52.734;6.544;2023-05-14T12:09:37;8.32;;;5.57;;
60038;SDS011;45916;52.734;6.544;2023-05-14T12:12:09;9.35;;;5.90;;
60038;SDS011;45916;52.734;6.544;2023-05-14T12:14:40;7.57;;;5.93;;
60038;SDS011;45916;52.734;6.544;2023-05-14T12:17:14;7.95;;;5.65;;
60038;SDS011;45916;52.734;6.544;2023-05-14T12:19:42;7.22;;;6.07;;
60038;SDS011;45916;52.734;6.544;2023-05-14T12:22:09;8.75;;;5.95;;
60038;SDS011;45916;52.734;6.544;2023-05-14T12:24:35;8.20;;;6.10;;
60038;SDS011;45916;52.734;6.544;2023-05-14T12:27:01;8.07;;;6.15;;
60038;SDS011;45916;52.734;6.544;2023-05-14T12:29:27;8.82;;;7.15;;
60038;SDS011;45916;52.734;6.544;2023-05-14T12:31:55;8.20;;;6.57;;
60038;SDS011;45916;52.734;6.544;2023-05-14T12:34:23;10.30;;;8.00;;
60038;SDS011;45916;52.734;6.544;2023-05-14T12:36:49;7.55;;;5.40;;
60038;SDS011;45916;52.734;6.544;2023-05-14T12:39:14;8.73;;;5.95;;
60038;SDS011;45916;52.734;6.544;2023-05-14T12:41:40;7.40;;;5.45;;
60038;SDS011;45916;52.734;6.544;2023-05-14T12:44:06;6.97;;;5.28;;
60038;SDS011;45916;52.734;6.544;2023-05-14T12:46:32;8.73;;;6.50;;
60038;SDS011;45916;52.734;6.544;2023-05-14T12:48:58;8.43;;;5.22;;
60038;SDS011;45916;52.734;6.544;2023-05-14T12:51:24;7.85;;;5.28;;
60038;SDS011;45916;52.734;6.544;2023-05-14T12:53:50;5.75;;;4.57;;
60038;SDS011;45916;52.734;6.544;2023-05-14T12:56:18;6.75;;;4.78;;
60038;SDS011;45916;52.734;6.544;2023-05-14T12:58:43;7.68;;;5.47;;
60038;SDS011;45916;52.734;6.544;2023-05-14T13:01:10;6.40;;;4.90;;
60038;SDS011;45916;52.734;6.544;2023-05-14T13:03:36;6.60;;;4.93;;
60038;SDS011;45916;52.734;6.544;2023-05-14T13:06:02;6.78;;;4.30;;
60038;SDS011;45916;52.734;6.544;2023-05-14T13:08:28;8.18;;;5.28;;
60038;SDS011;45916;52.734;6.544;2023-05-14T13:10:54;6.65;;;5.20;;
60038;SDS011;45916;52.734;6.544;2023-05-14T13:13:20;7.85;;;5.18;;
60038;SDS011;45916;52.734;6.544;2023-05-14T13:15:46;6.53;;;4.10;;
60038;SDS011;45916;52.734;6.544;2023-05-14T13:18:13;7.95;;;5.35;;
60038;SDS011;45916;52.734;6.544;2023-05-14T13:20:39;5.75;;;5.15;;
60038;SDS011;45916;52.734;6.544;2023-05-14T13:23:05;7.22;;;5.63;;
60038;SDS011;45916;52.734;6.544;2023-05-14T13:25:31;11.00;;;5.50;;
60038;SDS011;45916;52.734;6.544;2023-05-14T13:27:56;11.02;;;5.22;;
60038;SDS011;45916;52.734;6.544;2023-05-14T13:30:22;8.45;;;4.95;;
60038;SDS011;45916;52.734;6.544;2023-05-14T13:32:48;7.68;;;5.07;;
60038;SDS011;45916;52.734;6.544;2023-05-14T13:35:14;7.80;;;5.28;;
60038;SDS011;45916;52.734;6.544;2023-05-14T13:37:41;7.57;;;5.15;;
60038;SDS011;45916;52.734;6.544;2023-05-14T13:40:07;8.32;;;5.38;;
60038;SDS011;45916;52.734;6.544;2023-05-14T13:42:34;7.82;;;5.38;;
60038;SDS011;45916;52.734;6.544;2023-05-14T13:45:00;7.53;;;5.78;;
60038;SDS011;45916;52.734;6.544;2023-05-14T13:47:26;7.93;;;4.88;;
60038;SDS011;45916;52.734;6.544;2023-05-14T13:49:52;12.23;;;6.28;;
60038;SDS011;45916;52.734;6.544;2023-05-14T13:52:18;6.28;;;4.70;;
60038;SDS011;45916;52.734;6.544;2023-05-14T13:54:45;6.72;;;4.55;;
60038;SDS011;45916;52.734;6.544;2023-05-14T13:57:10;7.30;;;4.90;;
60038;SDS011;45916;52.734;6.544;2023-05-14T13:59:36;8.27;;;5.28;;
60038;SDS011;45916;52.734;6.544;2023-05-14T14:02:02;6.03;;;5.32;;
60038;SDS011;45916;52.734;6.544;2023-05-14T14:04:28;7.65;;;6.07;;
60038;SDS011;45916;52.734;6.544;2023-05-14T14:06:54;10.95;;;6.53;;
60038;SDS011;45916;52.734;6.544;2023-05-14T14:09:20;9.25;;;4.53;;
60038;SDS011;45916;52.734;6.544;2023-05-14T14:11:46;7.38;;;5.15;;
60038;SDS011;45916;52.734;6.544;2023-05-14T14:14:12;11.65;;;7.93;;
60038;SDS011;45916;52.734;6.544;2023-05-14T14:16:38;12.75;;;7.90;;
60038;SDS011;45916;52.734;6.544;2023-05-14T14:19:04;9.00;;;6.90;;
60038;SDS011;45916;52.734;6.544;2023-05-14T14:21:30;11.45;;;6.82;;
60038;SDS011;45916;52.734;6.544;2023-05-14T14:23:56;8.30;;;6.30;;
60038;SDS011;45916;52.734;6.544;2023-05-14T14:26:22;10.20;;;6.10;;
60038;SDS011;45916;52.734;6.544;2023-05-14T14:28:48;8.35;;;5.88;;
60038;SDS011;45916;52.734;6.544;2023-05-14T14:31:14;10.20;;;6.72;;
60038;SDS011;45916;52.734;6.544;2023-05-14T14:33:40;7.80;;;5.88;;
60038;SDS011;45916;52.734;6.544;2023-05-14T14:36:07;6.80;;;6.10;;
60038;SDS011;45916;52.734;6.544;2023-05-14T14:38:33;6.70;;;5.68;;